Burlington, Michigan
Current Conditions -  °F | °C
As of 1:54 PM on Friday 24 Oct 2014 (Local Time) from KRMY Reporting Station
Overcast Overcast  
Wind Chill: 57°   Ceiling: 3200
Heat Index: 57°   Visibility: 10mi
Dew Point: 47°   Wind: 5mph
Humidity: 70%   Direction: 210°SSW
Pressure: 30.02"   Gusts: NA
Location:  42.11°N, 85.08°W
Report Text: KRMY 241754Z AUTO 21004KT 10SM OVC032 14/09 A3002 RMK AO2 T01400086
Loading
Personal Weather Stations






























Interactive Weather Map
Tropical Storm Tracking
New forecast layout! Learn more

10-Day Weather Forecast

Advertisements
Track Severe Weather on mobile